Carloforte, Italy

12:10 PM CEST on September 30, 2014 (GMT +0200)
Iglesias | Change Station
CLOSE
Current Station
Personal Weather Station
Location: Meteo Iglesias, SARDEGNA ( CI )
Elevation: 633 ft
Nearby Weather Stations

Elev 633 ft 39.31 °N, 8.52 °E | Updated 5 seconds ago

Partly Cloudy
Partly Cloudy
79.5 °F
Feels Like 81 °F
N
16.1
Wind Variable Wind from East
Gusts 16.1 mph

Today
High -- | Low -- °F
--% Chance of Precip.
Yesterday
High -- | Low -- °F
Precip. -- in
7:21 AM 7:11 PM
Waxing Crescent, 35% visible
Pressure 30.27 in
Visibility 6.2 miles
Clouds Few 2000 ft
Heat Index 81 °F
Dew Point 65 °F
Humidity 61%
Rainfall 0.00 in
Snow Depth Not available.
UV 6 out of 12
Pollen Not available.
Air Quality Not available.
Flu Activity Not available.
METAR LIEE 300950Z 14013KT 9999 FEW020 26/20 Q1025

More Conditions Fewer Conditions

Pressure 30.27 in
Visibility 6.2 miles
Clouds Few 2000 ft
Heat Index 81 °F
Dew Point 65 °F
Humidity 61%
Rainfall 0.00 in
Snow Depth Not available.
UV 6 out of 12
Pollen Not available.
Air Quality Not available.
Flu Activity Not available.
METAR LIEE 300950Z 14013KT 9999 FEW020 26/20 Q1025

More Conditions Fewer Conditions

10-Day Weather Forecast

Almanac

Astronomy

Sep. 30, 2014 Rise Set
Actual Time 7:21 AM CEST 7:11 PM CEST
Civil Twilight 6:54 AM CEST 7:37 PM CEST
Nautical Twilight 6:23 AM CEST 8:08 PM CEST
Astronomical Twilight 5:52 AM CEST 8:40 PM CEST
Moon 1:12 PM CEST 11:27 PM CEST
Length of Visible Light 12h 43m
Length of Day
11h 49m
Tomorrow will be 2m 31s shorter.
Waxing Crescent, 35% of the Moon is Illuminated
Today
Waxing Crescent
Oct 1
First Quarter
Oct 8
Full
Oct 15
Last Quarter
Oct 23
New

Yesterday's Extremes

Country Highs Country Lows

Community

WunderPhotos

Upload Photos

1,757,608 photos uploaded!

Nearby

Snow Depth

Not available.

Earthquake Activity

City Distance Mag. Time & Date
No recent earthquake activity has been reported nearby.
Minimum magnitude displayed is 2.5.

Coastal Water Temperatures

Place Temperature
No Stations Reporting

Nearby Weather Stations